Time;durP1;ratioP1;P1;durP2;ratioP2;P2;SDS_P1;SDS_P2;PMS_P1;PMS_P2;Temp;Humidity;BMP_temperature;BMP_pressure;BME280_temperature;BME280_humidity;BME280_pressure;Samples;Min_cycle;Max_cycle;Signal;HPM_P1;HPM_P2
2022/08/10 00:00:35;;;;;;;2.37;2.00;;;;;;;17.31;59.08;98805.97;5088185;28;20210;-65
2022/08/10 00:03:01;;;;;;;2.50;2.30;;;;;;;17.36;58.65;98804.59;5088919;28;20210;-65
2022/08/10 00:05:28;;;;;;;2.20;2.00;;;;;;;17.35;58.58;98797.56;5085549;28;20211;-65
2022/08/10 00:07:55;;;;;;;2.73;2.07;;;;;;;17.36;58.79;98803.72;5089116;28;20275;-65
2022/08/10 00:10:24;;;;;;;2.70;2.50;;;;;;;17.31;59.32;98804.13;5089094;28;20301;-65
2022/08/10 00:12:51;;;;;;;2.97;2.23;;;;;;;17.28;59.20;98799.06;5088519;28;20672;-65
2022/08/10 00:15:19;;;;;;;2.67;2.10;;;;;;;17.23;59.20;98801.28;5085566;28;20219;-65
2022/08/10 00:17:46;;;;;;;3.10;2.23;;;;;;;17.19;60.04;98799.00;5089170;28;20215;-65
2022/08/10 00:20:13;;;;;;;2.50;2.30;;;;;;;17.14;60.26;98799.38;5088903;28;20592;-65
2022/08/10 00:22:40;;;;;;;2.63;2.43;;;;;;;17.04;61.53;98803.81;5088726;28;20210;-65
2022/08/10 00:25:08;;;;;;;2.80;2.60;;;;;;;17.05;61.30;98799.31;5083622;28;20215;-65
2022/08/10 00:27:36;;;;;;;2.20;2.03;;;;;;;17.07;60.73;98802.72;5065191;28;20210;-65
2022/08/10 00:30:03;;;;;;;2.43;2.13;;;;;;;17.09;60.83;98806.94;5088982;28;20218;-64
2022/08/10 00:32:29;;;;;;;3.47;2.70;;;;;;;17.05;61.14;98800.16;5088941;28;20211;-64
2022/08/10 00:34:56;;;;;;;2.33;1.90;;;;;;;16.98;61.70;98799.00;5085144;28;20680;-64
2022/08/10 00:37:22;;;;;;;2.70;2.50;;;;;;;16.86;62.55;98794.69;5072403;28;20211;-64
2022/08/10 00:39:49;;;;;;;2.83;2.20;;;;;;;16.81;62.39;98791.56;5075252;28;20215;-64
2022/08/10 00:42:16;;;;;;;2.57;2.20;;;;;;;16.81;62.12;98794.22;5084598;28;20210;-64
2022/08/10 00:44:45;;;;;;;2.37;2.10;;;;;;;16.84;61.74;98791.31;5084879;28;20685;-64
2022/08/10 00:47:13;;;;;;;2.30;2.10;;;;;;;16.90;61.35;98790.78;5088286;28;20295;-64
2022/08/10 00:49:40;;;;;;;2.10;2.00;;;;;;;16.96;61.12;98784.91;5088761;28;20584;-66
2022/08/10 00:52:08;;;;;;;2.50;2.20;;;;;;;16.97;61.33;98781.28;5087038;28;20210;-65
2022/08/10 00:54:36;;;;;;;2.43;2.23;;;;;;;16.96;61.23;98789.41;5079425;28;20238;-64
2022/08/10 00:57:03;;;;;;;3.43;2.20;;;;;;;16.95;61.38;98793.06;5064243;28;20227;-65
2022/08/10 00:59:31;;;;;;;2.07;1.97;;;;;;;16.95;61.50;98791.22;5088411;28;20240;-65
2022/08/10 01:01:59;;;;;;;2.50;2.30;;;;;;;16.98;61.35;98793.66;5088501;28;20222;-65
2022/08/10 01:04:26;;;;;;;2.33;2.13;;;;;;;16.95;61.67;98788.56;5080554;28;20688;-65
2022/08/10 01:07:02;;;;;;;2.80;2.33;;;;;;;16.89;62.08;98781.06;5064186;28;20222;-65
2022/08/10 01:09:35;;;;;;;2.20;2.00;;;;;;;16.87;62.26;98784.84;5088142;28;20324;-64
2022/08/10 01:12:12;;;;;;;2.40;2.20;;;;;;;16.83;62.74;98786.91;5086695;28;20612;-65
2022/08/10 01:14:46;;;;;;;2.47;2.27;;;;;;;16.82;63.03;98782.56;5087672;28;20230;-64
2022/08/10 01:17:20;;;;;;;2.30;2.10;;;;;;;16.77;63.19;98784.75;5086584;28;20577;-64
2022/08/10 01:19:56;;;;;;;2.43;2.13;;;;;;;16.69;64.27;98789.03;5087042;28;20242;-65
2022/08/10 01:22:55;;;;;;;2.33;2.10;;;;;;;16.69;64.05;98789.91;5086596;28;20211;-64
2022/08/10 01:25:41;;;;;;;2.20;2.00;;;;;;;16.71;63.81;98779.94;5088349;28;20237;-64
2022/08/10 01:28:23;;;;;;;4.50;2.10;;;;;;;16.67;64.09;98777.66;5081832;28;20211;-64
2022/08/10 01:30:54;;;;;;;2.47;2.10;;;;;;;16.60;64.63;98790.69;5087970;28;20223;-64
2022/08/10 01:33:24;;;;;;;2.97;2.23;;;;;;;16.55;65.19;98790.22;5088103;28;20219;-64
2022/08/10 01:35:55;;;;;;;2.57;2.37;;;;;;;16.55;64.90;98787.53;5080233;28;20215;-64
2022/08/10 01:38:27;;;;;;;2.40;2.20;;;;;;;16.48;65.28;98794.38;5064303;28;20226;-64
2022/08/10 01:40:56;;;;;;;3.10;2.20;;;;;;;16.44;65.41;98797.41;5086780;28;20605;-65
2022/08/10 01:43:27;;;;;;;2.70;2.50;;;;;;;16.41;65.55;98795.81;5085454;28;20218;-64
2022/08/10 01:45:59;;;;;;;2.37;2.17;;;;;;;16.32;66.49;98793.88;5085795;28;20577;-64
2022/08/10 01:48:30;;;;;;;2.57;2.37;;;;;;;16.25;67.01;98786.50;5088262;28;20241;-64
2022/08/10 01:51:02;;;;;;;2.50;2.30;;;;;;;16.24;67.13;98784.81;5087842;28;20214;-65
2022/08/10 01:53:35;;;;;;;3.50;2.20;;;;;;;16.21;67.52;98788.56;5084780;28;20212;-65
2022/08/10 01:56:03;;;;;;;2.70;2.50;;;;;;;16.21;67.66;98791.25;5072073;28;20212;-64
2022/08/10 01:58:33;;;;;;;2.43;2.20;;;;;;;16.24;67.76;98796.34;5079657;28;20230;-64
2022/08/10 02:01:02;;;;;;;3.07;2.60;;;;;;;16.29;67.20;98798.63;5087487;28;20225;-65
2022/08/10 02:03:31;;;;;;;2.53;2.33;;;;;;;16.26;67.68;98799.72;5084132;28;20212;-64
2022/08/10 02:06:00;;;;;;;2.63;2.43;;;;;;;16.25;67.42;98800.72;5073883;28;20218;-63
2022/08/10 02:08:30;;;;;;;2.40;2.20;;;;;;;16.19;68.07;98793.19;5082586;28;20297;-65
2022/08/10 02:10:58;;;;;;;2.60;2.40;;;;;;;16.08;69.34;98795.88;5090601;28;20586;-65
2022/08/10 02:13:27;;;;;;;2.73;2.53;;;;;;;16.03;69.35;98795.41;5088820;28;20208;-64
2022/08/10 02:15:56;;;;;;;2.57;2.37;;;;;;;16.03;69.17;98787.41;5091553;28;20234;-64
2022/08/10 02:18:24;;;;;;;2.80;2.40;;;;;;;16.03;69.09;98791.91;5091297;28;20581;-64
2022/08/10 02:20:53;;;;;;;2.50;2.30;;;;;;;16.02;69.17;98789.34;5089658;28;20238;-65
2022/08/10 02:23:22;;;;;;;2.70;2.50;;;;;;;15.98;69.58;98789.59;5089406;28;20215;-64
2022/08/10 02:25:51;;;;;;;2.60;2.40;;;;;;;15.95;70.11;98791.66;5091313;28;20211;-65
2022/08/10 02:28:20;;;;;;;2.70;2.50;;;;;;;15.91;70.47;98792.03;5091230;28;20221;-65
2022/08/10 02:30:48;;;;;;;3.20;2.30;;;;;;;15.91;70.54;98787.56;5088683;28;20217;-64
2022/08/10 02:33:18;;;;;;;3.43;2.30;;;;;;;15.90;70.88;98801.00;5089621;28;20215;-65
2022/08/10 02:35:48;;;;;;;3.37;2.47;;;;;;;15.93;70.49;98792.75;5089331;28;20239;-64
2022/08/10 02:38:18;;;;;;;3.27;2.50;;;;;;;15.93;69.90;98801.59;5090799;28;20716;-64
2022/08/10 02:40:49;;;;;;;2.83;2.60;;;;;;;15.88;70.51;98802.97;5078186;28;20204;-64
2022/08/10 02:43:27;;;;;;;2.80;2.60;;;;;;;15.76;71.60;98793.28;5067082;28;20215;-64
2022/08/10 02:45:59;;;;;;;4.10;2.50;;;;;;;15.79;71.32;98801.00;5090633;28;20207;-64
2022/08/10 02:48:33;;;;;;;2.63;2.43;;;;;;;15.77;71.19;98789.63;5088751;28;20214;-64
2022/08/10 02:51:05;;;;;;;3.43;2.67;;;;;;;15.81;71.15;98791.91;5089592;28;20233;-64
2022/08/10 02:53:40;;;;;;;2.40;2.30;;;;;;;15.73;71.65;98793.50;5090857;28;20214;-64
2022/08/10 02:56:11;;;;;;;3.07;2.63;;;;;;;15.59;72.87;98796.41;5089855;28;20699;-65
2022/08/10 02:58:42;;;;;;;2.70;2.50;;;;;;;15.54;73.30;98793.25;5087590;28;20211;-64
2022/08/10 03:01:12;;;;;;;3.60;2.53;;;;;;;15.44;74.02;98803.78;5088758;28;20222;-64
2022/08/10 03:03:45;;;;;;;2.93;2.70;;;;;;;15.40;74.32;98793.50;5090644;28;20690;-64
2022/08/10 03:06:18;;;;;;;2.93;2.70;;;;;;;15.48;73.43;98799.06;5087968;28;20222;-64
2022/08/10 03:08:47;;;;;;;3.20;2.70;;;;;;;15.41;73.88;98792.53;5089861;28;20691;-65
2022/08/10 03:11:17;;;;;;;3.13;2.83;;;;;;;15.25;75.69;98794.66;5090477;28;20215;-64
2022/08/10 03:13:46;;;;;;;2.77;2.53;;;;;;;15.32;74.81;98795.88;5090307;28;20221;-63
2022/08/10 03:16:13;;;;;;;3.40;3.10;;;;;;;15.29;75.26;98788.13;5086077;28;20212;-64
2022/08/10 03:18:40;;;;;;;2.77;2.57;;;;;;;15.25;75.61;98797.31;5089489;28;20672;-65
2022/08/10 03:21:08;;;;;;;3.03;2.83;;;;;;;15.20;76.06;98791.50;5090249;28;20234;-64
2022/08/10 03:23:38;;;;;;;2.60;2.40;;;;;;;15.20;75.76;98799.47;5090009;28;20206;-64
2022/08/10 03:26:05;;;;;;;3.20;2.90;;;;;;;15.19;75.68;98797.78;5086480;28;20212;-65
2022/08/10 03:28:33;;;;;;;3.00;2.80;;;;;;;15.19;75.83;98793.31;5088599;28;20584;-64
2022/08/10 03:31:01;;;;;;;2.90;2.70;;;;;;;15.16;76.52;98798.03;5090014;28;20321;-65
2022/08/10 03:33:31;;;;;;;3.33;2.90;;;;;;;15.14;77.00;98795.47;5089302;28;20672;-64
2022/08/10 03:35:58;;;;;;;3.27;2.80;;;;;;;15.10;76.94;98802.00;5086897;28;20243;-64
2022/08/10 03:38:24;;;;;;;2.83;2.60;;;;;;;15.04;77.51;98804.31;5089965;28;20213;-64
2022/08/10 03:40:54;;;;;;;3.63;3.10;;;;;;;15.04;77.34;98796.31;5088776;28;20218;-64
2022/08/10 03:43:23;;;;;;;3.20;2.90;;;;;;;15.06;77.06;98791.72;5088825;28;20217;-64
2022/08/10 03:45:54;;;;;;;3.10;2.80;;;;;;;15.07;76.86;98796.06;5086643;28;20231;-64
2022/08/10 03:48:22;;;;;;;3.03;2.83;;;;;;;15.07;76.88;98802.25;5089804;28;20211;-65
2022/08/10 03:50:50;;;;;;;3.07;2.77;;;;;;;15.14;76.79;98810.59;5089627;28;20220;-63
2022/08/10 03:53:17;;;;;;;3.03;2.83;;;;;;;15.21;76.35;98811.84;5086350;28;20219;-64
2022/08/10 03:55:44;;;;;;;3.10;2.90;;;;;;;15.24;76.46;98804.47;5087012;28;20247;-64
2022/08/10 03:58:12;;;;;;;3.47;3.10;;;;;;;15.22;76.68;98809.03;5089580;28;20217;-64
2022/08/10 04:00:40;;;;;;;3.27;3.03;;;;;;;15.20;76.81;98810.13;5089588;28;20211;-65
2022/08/10 04:03:07;;;;;;;2.60;2.40;;;;;;;15.21;77.35;98811.84;5087403;28;20213;-64
2022/08/10 04:05:34;;;;;;;3.00;2.80;;;;;;;15.22;77.11;98818.88;5086785;28;20219;-64
2022/08/10 04:08:02;;;;;;;3.37;3.07;;;;;;;15.22;77.14;98809.03;5089226;28;20218;-64
2022/08/10 04:10:29;;;;;;;3.30;3.00;;;;;;;15.24;76.78;98811.59;5089449;28;20218;-64
2022/08/10 04:12:55;;;;;;;3.37;3.03;;;;;;;15.31;76.17;98818.16;5075658;28;20215;-64
2022/08/10 04:15:24;;;;;;;3.40;3.10;;;;;;;15.39;75.62;98821.94;5086708;28;20234;-64
2022/08/10 04:17:51;;;;;;;8.07;3.20;;;;;;;15.48;75.05;98820.38;5089051;28;20214;-65
2022/08/10 04:20:20;;;;;;;3.00;2.80;;;;;;;15.53;74.88;98820.88;5087103;28;20254;-64
2022/08/10 04:22:50;;;;;;;3.37;2.67;;;;;;;15.55;74.95;98818.94;5087527;28;20229;-64
2022/08/10 04:25:18;;;;;;;3.13;2.87;;;;;;;15.60;74.42;98814.09;5087118;28;20217;-64
2022/08/10 04:27:45;;;;;;;2.97;2.67;;;;;;;15.62;74.53;98822.81;5088858;28;20237;-64
2022/08/10 04:30:12;;;;;;;3.20;2.70;;;;;;;15.60;74.74;98819.44;5089067;28;20583;-64
2022/08/10 04:32:41;;;;;;;2.90;2.70;;;;;;;15.61;74.58;98821.13;5087015;28;20215;-65
2022/08/10 04:35:10;;;;;;;3.20;3.00;;;;;;;15.51;75.45;98820.16;5087143;28;20239;-64
2022/08/10 04:37:38;;;;;;;3.57;2.83;;;;;;;15.52;75.67;98829.84;5089072;28;20613;-64
2022/08/10 04:40:06;;;;;;;2.87;2.67;;;;;;;15.54;75.50;98834.09;5081445;28;20207;-64
2022/08/10 04:42:33;;;;;;;3.20;3.00;;;;;;;15.57;75.05;98831.16;5084914;28;20211;-64
2022/08/10 04:44:59;;;;;;;3.00;2.70;;;;;;;15.75;74.00;98831.53;5085664;28;20215;-64
2022/08/10 04:47:26;;;;;;;3.57;3.27;;;;;;;15.92;72.78;98831.03;5088481;28;20207;-65
2022/08/10 04:49:54;;;;;;;3.63;2.70;;;;;;;15.97;72.52;98839.53;5088741;28;20215;-64
2022/08/10 04:52:20;;;;;;;3.10;2.80;;;;;;;16.00;72.80;98831.31;5086659;28;20210;-64
2022/08/10 04:54:47;;;;;;;3.10;2.90;;;;;;;16.02;72.69;98832.03;5086513;28;20237;-64
2022/08/10 04:57:13;;;;;;;3.00;2.80;;;;;;;16.06;72.63;98828.97;5088436;28;20211;-65
2022/08/10 04:59:40;;;;;;;3.30;2.80;;;;;;;16.18;71.91;98828.84;5088474;28;20214;-65
2022/08/10 05:02:06;;;;;;;3.00;2.70;;;;;;;16.26;71.94;98829.06;5086569;28;20213;-65
2022/08/10 05:04:33;;;;;;;3.20;2.63;;;;;;;16.39;70.81;98827.13;5086124;28;20234;-65
2022/08/10 05:07:00;;;;;;;3.00;2.70;;;;;;;16.43;71.04;98828.59;5088389;28;20699;-63
2022/08/10 05:09:27;;;;;;;2.90;2.70;;;;;;;16.50;71.25;98827.09;5088698;28;20214;-66
2022/08/10 05:11:54;;;;;;;3.07;2.83;;;;;;;16.51;71.57;98826.13;5085195;28;20684;-64
2022/08/10 05:14:20;;;;;;;2.87;2.67;;;;;;;16.61;71.62;98827.06;5085752;28;20207;-64
2022/08/10 05:16:47;;;;;;;2.80;2.60;;;;;;;16.69;71.70;98835.28;5088589;28;20664;-64
2022/08/10 05:19:13;;;;;;;3.33;2.90;;;;;;;16.80;71.36;98832.56;5088286;28;20243;-64
2022/08/10 05:21:40;;;;;;;3.03;2.83;;;;;;;16.93;71.05;98832.38;5087332;28;20225;-64
2022/08/10 05:24:08;;;;;;;3.40;3.10;;;;;;;17.06;70.99;98833.91;5085241;28;20208;-64
2022/08/10 05:26:34;;;;;;;2.67;2.47;;;;;;;17.18;72.05;98838.22;5085508;28;20673;-65
2022/08/10 05:29:01;;;;;;;3.00;2.60;;;;;;;17.29;71.96;98842.63;5081070;28;20217;-64
2022/08/10 05:31:28;;;;;;;3.13;2.70;;;;;;;17.44;70.99;98836.84;5087458;28;20215;-65
2022/08/10 05:33:54;;;;;;;3.10;2.80;;;;;;;17.57;69.74;98840.19;5084521;28;20301;-64
2022/08/10 05:36:21;;;;;;;3.27;2.80;;;;;;;17.77;68.31;98841.97;5086848;28;20261;-65
2022/08/10 05:38:49;;;;;;;5.10;2.70;;;;;;;17.94;66.73;98838.69;5087799;28;20206;-65
2022/08/10 05:41:17;;;;;;;2.87;2.43;;;;;;;18.11;66.27;98839.88;5090350;28;20572;-65
2022/08/10 05:43:44;;;;;;;4.40;2.53;;;;;;;18.29;65.75;98844.41;5088805;28;20211;-65
2022/08/10 05:46:11;;;;;;;3.50;2.90;;;;;;;18.89;62.43;98843.44;5092303;28;20221;-65
2022/08/10 05:48:39;;;;;;;3.57;2.80;;;;;;;19.76;57.69;98846.72;5091863;28;20686;-65
2022/08/10 05:51:05;;;;;;;3.67;3.07;;;;;;;20.54;55.45;98839.03;5091899;28;20222;-65
2022/08/10 05:53:33;;;;;;;2.60;2.40;;;;;;;21.35;53.75;98844.25;5082635;28;20208;-65
2022/08/10 05:56:01;;;;;;;2.57;2.37;;;;;;;22.21;51.35;98838.75;5066186;28;20245;-65
2022/08/10 05:58:29;;;;;;;2.87;2.60;;;;;;;22.91;48.57;98835.63;5090631;28;20242;-64
2022/08/10 06:00:57;;;;;;;2.93;2.40;;;;;;;23.51;47.19;98844.28;5090460;28;20210;-64
2022/08/10 06:03:26;;;;;;;4.33;2.40;;;;;;;24.09;45.99;98834.91;5085551;28;20221;-64
2022/08/10 06:05:54;;;;;;;2.63;2.40;;;;;;;24.59;44.73;98838.13;5090501;28;20211;-65
2022/08/10 06:08:23;;;;;;;2.50;2.30;;;;;;;24.96;44.05;98846.38;5090389;28;20672;-64
2022/08/10 06:10:53;;;;;;;2.70;2.43;;;;;;;25.21;42.21;98844.31;5089377;28;20316;-64
2022/08/10 06:16:08;;;;;;;2.53;2.27;;;;;;;25.60;41.93;98853.16;5090013;28;20307;-64
2022/08/10 06:18:36;;;;;;;2.43;2.23;;;;;;;25.81;41.44;98851.44;5089981;28;20218;-64
2022/08/10 06:21:03;;;;;;;3.83;2.57;;;;;;;26.09;41.11;98847.09;5078290;28;20246;-64
2022/08/10 06:23:31;;;;;;;3.93;2.53;;;;;;;26.25;40.74;98843.34;5090371;28;20290;-64
2022/08/10 06:25:58;;;;;;;3.53;2.27;;;;;;;26.41;40.32;98846.75;5089972;28;20588;-64
2022/08/10 06:28:28;;;;;;;3.63;2.50;;;;;;;26.55;39.45;98845.91;5089842;28;20461;-65
2022/08/10 06:30:56;;;;;;;2.27;2.07;;;;;;;26.64;38.90;98847.47;5080553;28;20222;-65
2022/08/10 06:33:26;;;;;;;2.40;2.00;;;;;;;26.66;39.35;98845.44;5065985;28;20229;-65
2022/08/10 06:35:55;;;;;;;3.33;2.10;;;;;;;26.67;39.42;98844.38;5089364;28;20331;-64
2022/08/10 06:38:24;;;;;;;3.37;2.23;;;;;;;26.56;39.69;98844.88;5089980;28;20218;-65
2022/08/10 06:40:56;;;;;;;2.57;2.37;;;;;;;26.27;39.98;98846.75;5079168;28;20208;-64
2022/08/10 06:43:25;;;;;;;2.23;2.00;;;;;;;25.45;41.00;98845.00;5082919;28;20226;-64
2022/08/10 06:45:54;;;;;;;2.53;2.20;;;;;;;24.13;43.53;98846.25;5090845;28;20215;-64
2022/08/10 06:48:26;;;;;;;3.00;2.20;;;;;;;23.17;46.02;98844.44;5087656;28;20694;-64
2022/08/10 06:50:58;;;;;;;4.27;2.30;;;;;;;22.65;47.55;98847.53;5058283;28;20235;-64
2022/08/10 06:53:31;;;;;;;2.83;2.30;;;;;;;22.36;48.34;98853.28;5066196;28;20215;-64
2022/08/10 06:56:02;;;;;;;3.43;2.00;;;;;;;22.26;49.22;98849.03;5083314;28;20261;-64
2022/08/10 06:58:36;;;;;;;3.13;1.90;;;;;;;22.25;48.62;98853.56;5075005;28;20215;-64
2022/08/10 07:01:07;;;;;;;2.73;2.10;;;;;;;22.13;48.34;98849.47;5076325;28;20215;-63
2022/08/10 07:03:40;;;;;;;2.30;2.10;;;;;;;22.15;48.84;98860.94;5072686;28;20211;-63
2022/08/10 07:06:08;;;;;;;3.13;2.10;;;;;;;22.14;49.53;98851.16;5072993;28;20207;-63
2022/08/10 07:08:36;;;;;;;2.80;2.00;;;;;;;22.24;50.04;98857.28;5071897;28;20220;-63
2022/08/10 07:11:05;;;;;;;2.87;2.30;;;;;;;22.33;49.34;98845.53;5072562;28;20211;-62
2022/08/10 07:13:32;;;;;;;3.13;2.20;;;;;;;22.38;47.99;98843.19;5056887;28;20208;-63
2022/08/10 07:16:01;;;;;;;3.30;2.30;;;;;;;22.43;48.12;98840.06;5056039;28;20633;-63
2022/08/10 07:18:29;;;;;;;3.63;2.07;;;;;;;22.53;49.02;98849.69;5072379;28;20233;-63
2022/08/10 07:21:00;;;;;;;2.47;1.80;;;;;;;22.65;49.15;98856.47;5071977;28;20243;-63
2022/08/10 07:23:29;;;;;;;2.50;2.07;;;;;;;22.82;48.49;98852.81;5069093;28;20284;-64
2022/08/10 07:25:57;;;;;;;2.87;2.20;;;;;;;22.91;48.37;98843.72;5055760;28;20217;-63
2022/08/10 07:28:25;;;;;;;3.83;2.27;;;;;;;22.97;46.23;98842.22;5071315;28;20215;-63
2022/08/10 07:30:52;;;;;;;2.93;2.00;;;;;;;23.04;47.28;98840.53;5070421;28;20695;-63
2022/08/10 07:33:21;;;;;;;3.67;1.83;;;;;;;23.14;47.04;98842.06;5071494;28;20237;-64
2022/08/10 07:35:50;;;;;;;1.90;1.80;;;;;;;23.18;46.61;98840.75;5055863;28;20239;-63
2022/08/10 07:38:22;;;;;;;2.47;2.10;;;;;;;23.28;47.42;98843.28;5070528;28;20211;-62
2022/08/10 07:40:50;;;;;;;2.13;1.93;;;;;;;23.39;47.46;98845.63;5071280;28;20491;-63
2022/08/10 07:43:18;;;;;;;2.13;1.93;;;;;;;23.45;47.24;98843.09;5070779;28;20212;-63
2022/08/10 07:45:46;;;;;;;1.90;1.80;;;;;;;23.52;46.94;98840.59;5070019;28;20215;-63
2022/08/10 07:48:16;;;;;;;2.63;2.13;;;;;;;23.64;46.82;98840.06;5070897;28;20215;-63
2022/08/10 07:50:45;;;;;;;3.87;2.00;;;;;;;23.77;45.54;98832.25;5068491;28;20215;-63
2022/08/10 07:53:17;;;;;;;2.83;2.23;;;;;;;23.83;46.19;98834.28;5070138;28;20242;-63
2022/08/10 07:55:47;;;;;;;2.30;2.10;;;;;;;23.99;46.71;98841.53;5070441;28;20250;-63
2022/08/10 07:58:16;;;;;;;1.97;1.83;;;;;;;24.05;46.35;98838.13;5070469;28;20723;-63
2022/08/10 08:00:45;;;;;;;4.17;1.70;;;;;;;24.19;44.45;98832.84;5056715;28;20645;-65
2022/08/10 08:03:13;;;;;;;2.73;1.90;;;;;;;24.26;44.73;98830.31;5072562;28;20222;-63
2022/08/10 08:05:41;;;;;;;1.83;1.70;;;;;;;24.32;44.79;98830.44;5072860;28;20302;-63
2022/08/10 08:08:09;;;;;;;2.47;2.07;;;;;;;24.46;43.74;98826.16;5072105;28;20208;-63
2022/08/10 08:10:38;;;;;;;1.90;1.63;;;;;;;24.56;44.13;98829.50;5074190;28;20221;-63
2022/08/10 08:13:06;;;;;;;2.13;1.77;;;;;;;24.70;43.52;98835.00;5073130;28;20212;-64
2022/08/10 08:15:34;;;;;;;2.40;1.90;;;;;;;24.78;44.04;98832.28;5071929;28;20214;-63
2022/08/10 08:18:02;;;;;;;2.95;1.80;;;;;;;24.89;43.68;98828.31;5071211;28;20215;-64
2022/08/10 08:20:29;;;;;;;2.80;1.65;;;;;;;25.04;42.99;98838.19;5074936;28;20249;-64
2022/08/10 08:22:58;;;;;;;2.60;1.77;;;;;;;25.07;42.92;98827.03;5072321;28;20211;-63
2022/08/10 08:25:25;;;;;;;1.87;1.60;;;;;;;25.15;42.99;98824.25;5072599;28;20215;-64
2022/08/10 08:27:55;;;;;;;3.72;1.92;;;;;;;25.28;42.31;98835.34;5072827;28;20219;-64
2022/08/10 08:30:24;;;;;;;1.73;1.60;;;;;;;25.33;42.08;98832.94;5074111;28;20208;-64
2022/08/10 08:32:51;;;;;;;1.75;1.63;;;;;;;25.39;42.02;98842.16;5083491;28;20504;-64
2022/08/10 08:35:19;;;;;;;2.00;1.80;;;;;;;25.47;41.61;98832.13;5072847;28;20211;-64
2022/08/10 08:37:48;;;;;;;1.80;1.47;;;;;;;25.55;41.32;98831.22;5071589;28;20239;-63
2022/08/10 08:40:18;;;;;;;3.50;1.70;;;;;;;25.73;39.85;98840.66;5076482;28;20203;-63
2022/08/10 08:43:01;;;;;;;1.65;1.50;;;;;;;25.77;38.85;98825.75;5074162;28;20218;-63
2022/08/10 08:45:39;;;;;;;1.90;1.65;;;;;;;25.82;39.15;98828.75;5072418;28;20211;-63
2022/08/10 08:48:28;;;;;;;2.15;1.60;;;;;;;25.79;39.02;98820.97;5076574;28;20564;-63
2022/08/10 08:51:11;;;;;;;2.40;1.60;;;;;;;25.86;39.51;98824.66;5074036;28;20585;-63
2022/08/10 08:53:50;;;;;;;1.70;1.60;;;;;;;26.11;38.88;98827.94;5073934;28;20322;-64
2022/08/10 08:56:25;;;;;;;1.63;1.52;;;;;;;26.18;38.78;98821.59;5072831;28;20235;-64
2022/08/10 08:59:08;;;;;;;3.47;1.65;;;;;;;26.21;38.60;98823.94;5073427;28;20214;-64
2022/08/10 09:01:48;;;;;;;2.85;1.70;;;;;;;26.18;38.37;98818.91;5074149;28;20211;-63
2022/08/10 09:04:27;;;;;;;2.90;1.58;;;;;;;26.26;37.29;98824.22;5073808;28;20238;-64
2022/08/10 09:07:22;;;;;;;3.20;1.67;;;;;;;26.32;37.42;98811.75;5073714;28;20214;-62
2022/08/10 09:10:03;;;;;;;2.47;1.50;;;;;;;26.38;36.04;98814.56;5076009;28;20746;-64
2022/08/10 09:12:44;;;;;;;1.70;1.60;;;;;;;26.47;35.52;98810.75;5069101;28;20211;-63
2022/08/10 09:15:18;;;;;;;1.98;1.55;;;;;;;26.58;36.20;98812.97;5074002;28;20233;-64
2022/08/10 09:18:08;;;;;;;3.03;1.42;;;;;;;26.65;35.27;98816.59;5074424;28;20245;-64
2022/08/10 09:20:40;;;;;;;1.50;1.40;;;;;;;26.70;35.19;98803.31;5074535;28;20234;-64
2022/08/10 09:23:14;;;;;;;2.17;1.60;;;;;;;26.79;33.62;98810.31;5062800;28;20237;-64
2022/08/10 09:25:48;;;;;;;1.80;1.70;;;;;;;26.75;34.61;98800.88;5074317;28;20449;-63
2022/08/10 09:28:23;;;;;;;2.03;1.80;;;;;;;26.74;34.73;98809.19;5085304;28;20215;-63
2022/08/10 09:30:56;;;;;;;2.00;1.58;;;;;;;26.87;35.20;98804.75;5088429;28;20210;-64
2022/08/10 09:33:37;;;;;;;1.73;1.63;;;;;;;26.92;34.23;98803.13;5087766;28;20249;-64
2022/08/10 09:36:15;;;;;;;1.70;1.30;;;;;;;27.01;33.79;98794.91;5084733;28;20587;-63
2022/08/10 09:38:51;;;;;;;4.72;1.50;;;;;;;27.08;33.94;98803.94;5086872;28;20622;-63
2022/08/10 09:41:26;;;;;;;1.85;1.40;;;;;;;27.20;33.35;98795.09;5087153;28;20210;-63
2022/08/10 09:44:03;;;;;;;2.72;1.40;;;;;;;27.19;31.58;98807.00;5084173;28;20219;-63
2022/08/10 09:46:46;;;;;;;1.67;1.45;;;;;;;27.13;31.53;98793.34;5088305;28;20241;-63
2022/08/10 09:49:21;;;;;;;2.15;1.35;;;;;;;27.17;31.55;98784.66;5086729;28;20794;-64
2022/08/10 09:51:56;;;;;;;1.65;1.50;;;;;;;27.29;30.99;98788.53;5084258;28;20237;-63
2022/08/10 09:54:47;;;;;;;1.60;1.40;;;;;;;27.32;31.08;98785.41;5088339;28;20263;-62
2022/08/10 09:57:20;;;;;;;1.35;1.25;;;;;;;27.27;31.63;98784.31;5084445;28;20254;-63
2022/08/10 09:59:56;;;;;;;2.35;1.48;;;;;;;27.37;31.25;98782.94;5085962;28;20226;-63
2022/08/10 10:02:35;;;;;;;3.58;1.77;;;;;;;27.56;30.88;98782.25;5087882;28;20207;-63
2022/08/10 10:05:18;;;;;;;2.72;1.45;;;;;;;27.58;30.84;98794.59;5084737;28;20215;-63
2022/08/10 10:07:53;;;;;;;2.83;1.60;;;;;;;27.58;30.48;98799.22;5086082;28;20585;-63
2022/08/10 10:10:24;;;;;;;1.58;1.40;;;;;;;27.52;30.69;98794.56;5088101;28;20217;-63
2022/08/10 10:12:54;;;;;;;1.98;1.25;;;;;;;27.58;31.23;98788.34;5085003;28;20562;-64
2022/08/10 10:15:31;;;;;;;1.70;1.40;;;;;;;27.59;31.07;98784.59;5084479;28;20218;-64
2022/08/10 10:18:09;;;;;;;1.58;1.23;;;;;;;27.64;31.48;98787.56;5087733;28;20249;-63
2022/08/10 10:20:40;;;;;;;2.95;1.50;;;;;;;27.74;30.36;98796.19;5086092;28;20292;-63
2022/08/10 10:23:16;;;;;;;4.00;1.50;;;;;;;27.75;31.43;98796.00;5060394;28;20266;-63
2022/08/10 10:25:50;;;;;;;1.75;1.33;;;;;;;27.71;31.27;98788.44;5063039;28;20762;-63
2022/08/10 10:28:29;;;;;;;2.95;1.65;;;;;;;27.73;31.58;98786.38;5072458;28;20211;-63
2022/08/10 10:31:10;;;;;;;4.80;1.50;;;;;;;27.72;32.36;98795.56;5070548;28;20207;-64
2022/08/10 10:33:46;;;;;;;1.52;1.40;;;;;;;27.73;32.19;98779.06;5062117;28;20581;-64
2022/08/10 10:36:16;;;;;;;1.50;1.40;;;;;;;27.75;32.51;98773.44;5072026;28;20221;-64
2022/08/10 10:38:44;;;;;;;3.15;1.88;;;;;;;27.90;32.07;98776.91;5069900;28;20934;-65
2022/08/10 10:41:24;;;;;;;1.67;1.52;;;;;;;27.92;32.10;98770.22;5072727;28;20211;-64
2022/08/10 10:44:02;;;;;;;2.35;1.40;;;;;;;28.03;32.67;98779.69;5073059;28;20222;-64
2022/08/10 10:46:41;;;;;;;2.38;1.73;;;;;;;28.07;32.31;98776.38;5072873;28;20226;-63
2022/08/10 10:49:26;;;;;;;1.70;1.50;;;;;;;27.99;32.65;98771.09;5072023;28;20222;-64
2022/08/10 10:52:02;;;;;;;2.75;1.40;;;;;;;28.14;31.59;98762.81;5072305;28;20575;-64
2022/08/10 10:54:39;;;;;;;2.50;1.52;;;;;;;28.20;31.85;98751.16;5069063;28;20215;-65
2022/08/10 10:57:13;;;;;;;1.45;1.35;;;;;;;28.28;30.90;98753.69;5071637;28;20242;-64
2022/08/10 10:59:49;;;;;;;2.17;1.60;;;;;;;28.29;30.59;98755.34;5070927;28;20210;-65
2022/08/10 11:02:31;;;;;;;2.60;1.42;;;;;;;28.20;30.06;98757.41;5072031;28;20219;-65
2022/08/10 11:05:11;;;;;;;1.63;1.30;;;;;;;28.20;30.52;98743.81;5061211;28;20222;-64
2022/08/10 11:07:46;;;;;;;4.90;1.60;;;;;;;28.25;30.33;98748.66;5072207;28;20238;-64
2022/08/10 11:10:18;;;;;;;2.28;1.30;;;;;;;28.36;29.63;98746.22;5069907;28;20241;-64
2022/08/10 11:12:52;;;;;;;2.42;1.45;;;;;;;28.32;30.38;98746.81;5070940;28;20218;-64
2022/08/10 11:15:26;;;;;;;1.40;1.30;;;;;;;28.28;30.27;98743.66;5072620;28;20202;-63
2022/08/10 11:17:59;;;;;;;1.80;1.38;;;;;;;28.35;30.45;98739.06;5072356;28;20243;-64
2022/08/10 11:20:36;;;;;;;2.05;1.48;;;;;;;28.43;29.99;98741.63;5069543;28;20239;-64
2022/08/10 11:23:28;;;;;;;2.10;1.40;;;;;;;28.42;29.64;98742.69;5066570;28;20228;-65
2022/08/10 11:26:01;;;;;;;1.88;1.45;;;;;;;28.42;30.05;98744.59;5056206;28;20215;-65
2022/08/10 11:28:34;;;;;;;2.83;1.50;;;;;;;28.39;30.14;98740.41;5071969;28;20217;-65
2022/08/10 11:31:07;;;;;;;2.08;1.40;;;;;;;28.54;30.24;98745.66;5072134;28;20211;-65
2022/08/10 11:33:40;;;;;;;1.63;1.52;;;;;;;28.63;30.58;98744.44;5070974;28;20211;-66
2022/08/10 11:36:16;;;;;;;1.65;1.52;;;;;;;28.74;29.92;98735.69;5071541;28;20696;-65
2022/08/10 11:38:53;;;;;;;1.60;1.50;;;;;;;28.75;30.08;98740.91;5071098;28;20239;-66
2022/08/10 11:41:29;;;;;;;2.15;1.40;;;;;;;28.73;29.91;98736.72;5070487;28;20217;-66
2022/08/10 11:44:05;;;;;;;2.20;1.42;;;;;;;28.80;30.24;98737.56;5071730;28;20219;-67
2022/08/10 11:46:34;;;;;;;4.03;1.52;;;;;;;28.88;29.40;98745.53;5072137;28;20217;-67
2022/08/10 11:49:11;;;;;;;2.33;1.60;;;;;;;28.76;29.80;98728.13;5070605;28;20695;-66
2022/08/10 11:51:44;;;;;;;1.50;1.40;;;;;;;28.73;30.26;98723.94;5071184;28;20594;-64
2022/08/10 11:54:24;;;;;;;3.90;1.50;;;;;;;28.81;30.20;98722.91;5059875;28;20673;-64